sensor_id;sensor_type;location;lat;lon;timestamp;P1;durP1;ratioP1;P2;durP2;ratioP2
4601;SDS011;2313;48.552;9.370;2023-01-08T00:01:53;4.20;;;3.80;;
4601;SDS011;2313;48.552;9.370;2023-01-08T00:04:18;3.73;;;3.37;;
4601;SDS011;2313;48.552;9.370;2023-01-08T00:06:44;4.00;;;3.60;;
4601;SDS011;2313;48.552;9.370;2023-01-08T00:09:10;3.90;;;3.50;;
4601;SDS011;2313;48.552;9.370;2023-01-08T00:11:36;3.90;;;3.23;;
4601;SDS011;2313;48.552;9.370;2023-01-08T00:14:01;4.70;;;3.90;;
4601;SDS011;2313;48.552;9.370;2023-01-08T00:16:27;4.47;;;3.87;;
4601;SDS011;2313;48.552;9.370;2023-01-08T00:18:53;5.57;;;4.83;;
4601;SDS011;2313;48.552;9.370;2023-01-08T00:21:18;5.20;;;4.10;;
4601;SDS011;2313;48.552;9.370;2023-01-08T00:23:44;6.23;;;4.17;;
4601;SDS011;2313;48.552;9.370;2023-01-08T00:26:10;5.00;;;3.70;;
4601;SDS011;2313;48.552;9.370;2023-01-08T00:28:37;6.00;;;3.77;;
4601;SDS011;2313;48.552;9.370;2023-01-08T00:31:03;4.73;;;3.60;;
4601;SDS011;2313;48.552;9.370;2023-01-08T00:33:30;5.33;;;4.00;;
4601;SDS011;2313;48.552;9.370;2023-01-08T00:35:57;3.73;;;3.13;;
4601;SDS011;2313;48.552;9.370;2023-01-08T00:38:26;3.30;;;3.00;;
4601;SDS011;2313;48.552;9.370;2023-01-08T00:40:52;4.77;;;4.17;;
4601;SDS011;2313;48.552;9.370;2023-01-08T00:43:18;4.27;;;3.50;;
4601;SDS011;2313;48.552;9.370;2023-01-08T00:45:44;4.40;;;3.57;;
4601;SDS011;2313;48.552;9.370;2023-01-08T00:48:09;6.17;;;3.77;;
4601;SDS011;2313;48.552;9.370;2023-01-08T00:50:35;3.30;;;3.00;;
4601;SDS011;2313;48.552;9.370;2023-01-08T00:53:01;3.80;;;2.80;;
4601;SDS011;2313;48.552;9.370;2023-01-08T00:55:27;3.83;;;3.33;;
4601;SDS011;2313;48.552;9.370;2023-01-08T00:57:54;4.07;;;2.77;;
4601;SDS011;2313;48.552;9.370;2023-01-08T01:00:20;2.80;;;2.60;;
4601;SDS011;2313;48.552;9.370;2023-01-08T01:02:46;2.77;;;2.57;;
4601;SDS011;2313;48.552;9.370;2023-01-08T01:05:12;3.47;;;2.67;;
4601;SDS011;2313;48.552;9.370;2023-01-08T01:07:42;3.13;;;2.70;;
4601;SDS011;2313;48.552;9.370;2023-01-08T01:10:09;3.70;;;2.40;;
4601;SDS011;2313;48.552;9.370;2023-01-08T01:12:39;2.70;;;2.50;;
4601;SDS011;2313;48.552;9.370;2023-01-08T01:15:06;2.60;;;2.40;;
4601;SDS011;2313;48.552;9.370;2023-01-08T01:17:33;2.80;;;2.37;;
4601;SDS011;2313;48.552;9.370;2023-01-08T01:20:01;3.50;;;2.47;;
4601;SDS011;2313;48.552;9.370;2023-01-08T01:22:27;6.60;;;2.37;;
4601;SDS011;2313;48.552;9.370;2023-01-08T01:24:53;2.83;;;2.23;;
4601;SDS011;2313;48.552;9.370;2023-01-08T01:27:19;2.50;;;2.30;;
4601;SDS011;2313;48.552;9.370;2023-01-08T01:29:44;2.80;;;2.43;;
4601;SDS011;2313;48.552;9.370;2023-01-08T01:32:10;2.60;;;2.40;;
4601;SDS011;2313;48.552;9.370;2023-01-08T01:34:35;2.63;;;2.43;;
4601;SDS011;2313;48.552;9.370;2023-01-08T01:37:01;3.07;;;2.20;;
4601;SDS011;2313;48.552;9.370;2023-01-08T01:39:27;3.27;;;2.97;;
4601;SDS011;2313;48.552;9.370;2023-01-08T01:41:53;4.50;;;2.70;;
4601;SDS011;2313;48.552;9.370;2023-01-08T01:44:36;2.83;;;2.53;;
4601;SDS011;2313;48.552;9.370;2023-01-08T01:47:26;4.33;;;2.57;;
4601;SDS011;2313;48.552;9.370;2023-01-08T01:52:44;3.33;;;2.63;;
4601;SDS011;2313;48.552;9.370;2023-01-08T01:55:30;3.60;;;2.93;;
4601;SDS011;2313;48.552;9.370;2023-01-08T01:58:31;4.77;;;2.83;;
4601;SDS011;2313;48.552;9.370;2023-01-08T02:00:52;6.70;;;4.77;;
4601;SDS011;2313;48.552;9.370;2023-01-08T02:03:23;5.83;;;3.27;;
4601;SDS011;2313;48.552;9.370;2023-01-08T02:05:53;4.23;;;3.80;;
4601;SDS011;2313;48.552;9.370;2023-01-08T02:08:38;8.43;;;4.33;;
4601;SDS011;2313;48.552;9.370;2023-01-08T02:11:39;6.73;;;4.10;;
4601;SDS011;2313;48.552;9.370;2023-01-08T02:14:52;4.47;;;3.80;;
4601;SDS011;2313;48.552;9.370;2023-01-08T02:20:01;5.83;;;4.10;;
4601;SDS011;2313;48.552;9.370;2023-01-08T02:28:38;4.43;;;4.00;;
4601;SDS011;2313;48.552;9.370;2023-01-08T02:31:06;5.77;;;4.17;;
4601;SDS011;2313;48.552;9.370;2023-01-08T02:33:32;4.00;;;3.40;;
4601;SDS011;2313;48.552;9.370;2023-01-08T02:42:05;6.50;;;3.13;;
4601;SDS011;2313;48.552;9.370;2023-01-08T02:44:44;4.33;;;3.27;;
4601;SDS011;2313;48.552;9.370;2023-01-08T02:47:34;3.33;;;3.03;;
4601;SDS011;2313;48.552;9.370;2023-01-08T02:53:28;3.00;;;2.77;;
4601;SDS011;2313;48.552;9.370;2023-01-08T02:55:37;2.87;;;2.67;;
4601;SDS011;2313;48.552;9.370;2023-01-08T02:58:05;3.37;;;2.97;;
4601;SDS011;2313;48.552;9.370;2023-01-08T03:00:31;3.40;;;3.00;;
4601;SDS011;2313;48.552;9.370;2023-01-08T03:03:08;3.27;;;2.83;;
4601;SDS011;2313;48.552;9.370;2023-01-08T03:05:51;4.77;;;3.50;;
4601;SDS011;2313;48.552;9.370;2023-01-08T03:08:24;3.60;;;2.90;;
4601;SDS011;2313;48.552;9.370;2023-01-08T03:11:00;4.57;;;3.10;;
4601;SDS011;2313;48.552;9.370;2023-01-08T03:13:45;5.13;;;3.20;;
4601;SDS011;2313;48.552;9.370;2023-01-08T03:18:56;7.47;;;2.70;;
4601;SDS011;2313;48.552;9.370;2023-01-08T03:21:41;2.93;;;2.63;;
4601;SDS011;2313;48.552;9.370;2023-01-08T03:24:11;3.13;;;2.80;;
4601;SDS011;2313;48.552;9.370;2023-01-08T03:26:40;2.60;;;2.40;;
4601;SDS011;2313;48.552;9.370;2023-01-08T03:29:09;3.53;;;2.53;;
4601;SDS011;2313;48.552;9.370;2023-01-08T03:31:37;2.60;;;2.40;;
4601;SDS011;2313;48.552;9.370;2023-01-08T03:34:04;3.80;;;2.57;;
4601;SDS011;2313;48.552;9.370;2023-01-08T03:36:31;2.90;;;2.60;;
4601;SDS011;2313;48.552;9.370;2023-01-08T03:39:04;3.00;;;2.43;;
4601;SDS011;2313;48.552;9.370;2023-01-08T03:41:36;2.30;;;1.90;;
4601;SDS011;2313;48.552;9.370;2023-01-08T03:44:01;4.17;;;2.90;;
4601;SDS011;2313;48.552;9.370;2023-01-08T03:46:29;2.37;;;2.17;;
4601;SDS011;2313;48.552;9.370;2023-01-08T03:48:57;2.60;;;1.57;;
4601;SDS011;2313;48.552;9.370;2023-01-08T03:51:24;3.07;;;2.17;;
4601;SDS011;2313;48.552;9.370;2023-01-08T03:53:49;2.40;;;1.80;;
4601;SDS011;2313;48.552;9.370;2023-01-08T03:56:18;4.20;;;2.60;;
4601;SDS011;2313;48.552;9.370;2023-01-08T03:58:44;2.63;;;2.33;;
4601;SDS011;2313;48.552;9.370;2023-01-08T04:01:09;3.60;;;3.13;;
4601;SDS011;2313;48.552;9.370;2023-01-08T04:03:35;3.27;;;2.90;;
4601;SDS011;2313;48.552;9.370;2023-01-08T04:06:01;3.97;;;3.10;;
4601;SDS011;2313;48.552;9.370;2023-01-08T04:08:26;6.00;;;2.97;;
4601;SDS011;2313;48.552;9.370;2023-01-08T04:10:52;5.60;;;3.73;;
4601;SDS011;2313;48.552;9.370;2023-01-08T04:13:17;5.57;;;4.10;;
4601;SDS011;2313;48.552;9.370;2023-01-08T04:15:49;4.27;;;3.77;;
4601;SDS011;2313;48.552;9.370;2023-01-08T04:18:16;7.43;;;6.00;;
4601;SDS011;2313;48.552;9.370;2023-01-08T04:20:45;7.30;;;5.50;;
4601;SDS011;2313;48.552;9.370;2023-01-08T04:23:12;15.73;;;7.70;;
4601;SDS011;2313;48.552;9.370;2023-01-08T04:25:38;7.87;;;6.70;;
4601;SDS011;2313;48.552;9.370;2023-01-08T04:28:03;8.50;;;6.33;;
4601;SDS011;2313;48.552;9.370;2023-01-08T04:30:29;8.83;;;7.47;;
4601;SDS011;2313;48.552;9.370;2023-01-08T04:32:55;8.70;;;7.00;;
4601;SDS011;2313;48.552;9.370;2023-01-08T04:35:21;11.60;;;7.37;;
4601;SDS011;2313;48.552;9.370;2023-01-08T04:37:47;8.00;;;6.13;;
4601;SDS011;2313;48.552;9.370;2023-01-08T04:40:12;9.97;;;7.37;;
4601;SDS011;2313;48.552;9.370;2023-01-08T04:42:38;9.30;;;6.90;;
4601;SDS011;2313;48.552;9.370;2023-01-08T04:45:05;7.90;;;6.63;;
4601;SDS011;2313;48.552;9.370;2023-01-08T04:47:31;7.67;;;6.47;;
4601;SDS011;2313;48.552;9.370;2023-01-08T04:49:57;9.17;;;7.03;;
4601;SDS011;2313;48.552;9.370;2023-01-08T04:52:23;8.23;;;6.50;;
4601;SDS011;2313;48.552;9.370;2023-01-08T04:54:48;7.50;;;6.50;;
4601;SDS011;2313;48.552;9.370;2023-01-08T04:57:14;9.83;;;7.33;;
4601;SDS011;2313;48.552;9.370;2023-01-08T04:59:40;8.13;;;6.30;;
4601;SDS011;2313;48.552;9.370;2023-01-08T05:02:05;6.30;;;5.70;;
4601;SDS011;2313;48.552;9.370;2023-01-08T05:04:31;6.17;;;5.27;;
4601;SDS011;2313;48.552;9.370;2023-01-08T05:06:56;8.50;;;5.60;;
4601;SDS011;2313;48.552;9.370;2023-01-08T05:09:22;7.57;;;5.10;;
4601;SDS011;2313;48.552;9.370;2023-01-08T05:11:48;10.70;;;6.00;;
4601;SDS011;2313;48.552;9.370;2023-01-08T05:14:13;6.93;;;5.90;;
4601;SDS011;2313;48.552;9.370;2023-01-08T05:16:39;7.50;;;5.87;;
4601;SDS011;2313;48.552;9.370;2023-01-08T05:19:04;5.70;;;4.60;;
4601;SDS011;2313;48.552;9.370;2023-01-08T05:21:30;8.20;;;5.43;;
4601;SDS011;2313;48.552;9.370;2023-01-08T05:23:56;6.80;;;4.50;;
4601;SDS011;2313;48.552;9.370;2023-01-08T05:26:21;5.40;;;3.50;;
4601;SDS011;2313;48.552;9.370;2023-01-08T05:28:47;4.77;;;4.00;;
4601;SDS011;2313;48.552;9.370;2023-01-08T05:31:13;4.50;;;2.97;;
4601;SDS011;2313;48.552;9.370;2023-01-08T05:33:39;4.27;;;2.50;;
4601;SDS011;2313;48.552;9.370;2023-01-08T05:36:08;4.90;;;4.10;;
4601;SDS011;2313;48.552;9.370;2023-01-08T05:38:35;4.80;;;2.90;;
4601;SDS011;2313;48.552;9.370;2023-01-08T05:41:01;5.37;;;4.23;;
4601;SDS011;2313;48.552;9.370;2023-01-08T05:43:28;4.20;;;3.67;;
4601;SDS011;2313;48.552;9.370;2023-01-08T05:45:53;3.97;;;3.63;;
4601;SDS011;2313;48.552;9.370;2023-01-08T05:48:22;4.63;;;3.20;;
4601;SDS011;2313;48.552;9.370;2023-01-08T05:50:48;4.17;;;3.63;;
4601;SDS011;2313;48.552;9.370;2023-01-08T05:53:14;5.60;;;3.13;;
4601;SDS011;2313;48.552;9.370;2023-01-08T05:55:40;4.97;;;3.20;;
4601;SDS011;2313;48.552;9.370;2023-01-08T05:58:05;3.60;;;2.60;;
4601;SDS011;2313;48.552;9.370;2023-01-08T06:00:31;3.53;;;3.23;;
4601;SDS011;2313;48.552;9.370;2023-01-08T06:02:59;2.73;;;2.53;;
4601;SDS011;2313;48.552;9.370;2023-01-08T06:05:25;4.67;;;2.80;;
4601;SDS011;2313;48.552;9.370;2023-01-08T06:07:51;4.50;;;2.40;;
4601;SDS011;2313;48.552;9.370;2023-01-08T06:10:17;2.30;;;2.10;;
4601;SDS011;2313;48.552;9.370;2023-01-08T06:12:42;4.23;;;2.90;;
4601;SDS011;2313;48.552;9.370;2023-01-08T06:15:08;3.53;;;2.70;;
4601;SDS011;2313;48.552;9.370;2023-01-08T06:17:35;2.70;;;1.97;;
4601;SDS011;2313;48.552;9.370;2023-01-08T06:20:00;2.60;;;2.40;;
4601;SDS011;2313;48.552;9.370;2023-01-08T06:22:26;3.97;;;2.50;;
4601;SDS011;2313;48.552;9.370;2023-01-08T06:24:52;2.53;;;2.30;;
4601;SDS011;2313;48.552;9.370;2023-01-08T06:27:17;3.77;;;2.17;;
4601;SDS011;2313;48.552;9.370;2023-01-08T06:29:43;3.23;;;2.93;;
4601;SDS011;2313;48.552;9.370;2023-01-08T06:32:09;2.33;;;2.13;;
4601;SDS011;2313;48.552;9.370;2023-01-08T06:34:34;3.33;;;2.60;;
4601;SDS011;2313;48.552;9.370;2023-01-08T06:37:00;2.23;;;2.03;;
4601;SDS011;2313;48.552;9.370;2023-01-08T06:39:25;4.23;;;3.07;;
4601;SDS011;2313;48.552;9.370;2023-01-08T06:41:51;2.50;;;2.30;;
4601;SDS011;2313;48.552;9.370;2023-01-08T06:44:17;2.03;;;1.93;;
4601;SDS011;2313;48.552;9.370;2023-01-08T06:46:42;1.70;;;1.60;;
4601;SDS011;2313;48.552;9.370;2023-01-08T06:49:08;1.67;;;1.47;;
4601;SDS011;2313;48.552;9.370;2023-01-08T06:51:34;4.17;;;1.53;;
4601;SDS011;2313;48.552;9.370;2023-01-08T06:54:01;2.50;;;1.83;;
4601;SDS011;2313;48.552;9.370;2023-01-08T06:56:26;1.93;;;1.47;;
4601;SDS011;2313;48.552;9.370;2023-01-08T06:58:52;1.47;;;1.37;;
4601;SDS011;2313;48.552;9.370;2023-01-08T07:01:18;4.13;;;1.63;;
4601;SDS011;2313;48.552;9.370;2023-01-08T07:03:43;2.57;;;1.83;;
4601;SDS011;2313;48.552;9.370;2023-01-08T07:06:16;3.63;;;1.60;;
4601;SDS011;2313;48.552;9.370;2023-01-08T07:08:44;1.53;;;1.30;;
4601;SDS011;2313;48.552;9.370;2023-01-08T07:11:10;2.60;;;2.10;;
4601;SDS011;2313;48.552;9.370;2023-01-08T07:13:37;8.87;;;4.87;;
4601;SDS011;2313;48.552;9.370;2023-01-08T07:16:10;2.83;;;2.20;;
4601;SDS011;2313;48.552;9.370;2023-01-08T07:18:37;2.40;;;2.20;;
4601;SDS011;2313;48.552;9.370;2023-01-08T07:21:03;2.00;;;1.90;;
4601;SDS011;2313;48.552;9.370;2023-01-08T07:23:30;1.60;;;1.40;;
4601;SDS011;2313;48.552;9.370;2023-01-08T07:26:00;2.60;;;1.37;;
4601;SDS011;2313;48.552;9.370;2023-01-08T07:28:30;1.47;;;1.10;;
4601;SDS011;2313;48.552;9.370;2023-01-08T07:30:56;2.10;;;1.63;;
4601;SDS011;2313;48.552;9.370;2023-01-08T07:33:21;1.10;;;1.00;;
4601;SDS011;2313;48.552;9.370;2023-01-08T07:35:53;1.53;;;1.43;;
4601;SDS011;2313;48.552;9.370;2023-01-08T07:38:20;2.30;;;1.50;;
4601;SDS011;2313;48.552;9.370;2023-01-08T07:40:46;1.40;;;1.30;;
4601;SDS011;2313;48.552;9.370;2023-01-08T07:43:12;2.90;;;1.73;;
4601;SDS011;2313;48.552;9.370;2023-01-08T07:45:38;1.73;;;1.20;;
4601;SDS011;2313;48.552;9.370;2023-01-08T07:48:05;2.23;;;1.40;;
4601;SDS011;2313;48.552;9.370;2023-01-08T07:50:31;2.40;;;1.77;;
4601;SDS011;2313;48.552;9.370;2023-01-08T07:53:00;1.43;;;1.03;;
4601;SDS011;2313;48.552;9.370;2023-01-08T07:55:26;1.27;;;1.00;;
4601;SDS011;2313;48.552;9.370;2023-01-08T07:57:53;1.30;;;1.00;;
4601;SDS011;2313;48.552;9.370;2023-01-08T08:00:18;1.10;;;0.93;;
4601;SDS011;2313;48.552;9.370;2023-01-08T08:02:44;1.00;;;0.73;;
4601;SDS011;2313;48.552;9.370;2023-01-08T08:05:10;1.27;;;0.73;;
4601;SDS011;2313;48.552;9.370;2023-01-08T08:07:35;1.37;;;0.80;;
4601;SDS011;2313;48.552;9.370;2023-01-08T08:10:02;1.10;;;0.80;;
4601;SDS011;2313;48.552;9.370;2023-01-08T08:12:28;1.40;;;1.17;;
4601;SDS011;2313;48.552;9.370;2023-01-08T08:14:54;1.83;;;0.80;;
4601;SDS011;2313;48.552;9.370;2023-01-08T08:17:20;1.63;;;1.00;;
4601;SDS011;2313;48.552;9.370;2023-01-08T08:19:45;0.80;;;0.70;;
4601;SDS011;2313;48.552;9.370;2023-01-08T08:22:12;0.90;;;0.80;;
4601;SDS011;2313;48.552;9.370;2023-01-08T08:24:37;1.10;;;0.90;;
4601;SDS011;2313;48.552;9.370;2023-01-08T08:27:03;1.47;;;1.00;;
4601;SDS011;2313;48.552;9.370;2023-01-08T08:29:29;1.00;;;0.90;;
4601;SDS011;2313;48.552;9.370;2023-01-08T08:31:54;1.27;;;0.90;;
4601;SDS011;2313;48.552;9.370;2023-01-08T08:34:20;1.43;;;0.77;;
4601;SDS011;2313;48.552;9.370;2023-01-08T08:36:46;1.77;;;1.00;;
4601;SDS011;2313;48.552;9.370;2023-01-08T08:39:13;1.30;;;1.20;;
4601;SDS011;2313;48.552;9.370;2023-01-08T08:41:39;9.23;;;1.33;;
4601;SDS011;2313;48.552;9.370;2023-01-08T08:44:06;2.77;;;1.00;;
4601;SDS011;2313;48.552;9.370;2023-01-08T08:46:33;0.83;;;0.80;;
4601;SDS011;2313;48.552;9.370;2023-01-08T08:48:59;1.03;;;0.90;;
4601;SDS011;2313;48.552;9.370;2023-01-08T08:51:24;1.47;;;1.23;;
4601;SDS011;2313;48.552;9.370;2023-01-08T08:53:50;1.00;;;0.87;;
4601;SDS011;2313;48.552;9.370;2023-01-08T08:56:16;1.30;;;0.90;;
4601;SDS011;2313;48.552;9.370;2023-01-08T08:58:41;0.80;;;0.80;;
4601;SDS011;2313;48.552;9.370;2023-01-08T09:01:09;3.60;;;0.90;;
4601;SDS011;2313;48.552;9.370;2023-01-08T09:03:35;1.33;;;0.80;;
4601;SDS011;2313;48.552;9.370;2023-01-08T09:06:00;0.87;;;0.60;;
4601;SDS011;2313;48.552;9.370;2023-01-08T09:08:26;1.37;;;0.90;;
4601;SDS011;2313;48.552;9.370;2023-01-08T09:10:52;0.93;;;0.80;;
4601;SDS011;2313;48.552;9.370;2023-01-08T09:13:17;1.63;;;1.00;;
4601;SDS011;2313;48.552;9.370;2023-01-08T09:15:43;1.23;;;1.13;;
4601;SDS011;2313;48.552;9.370;2023-01-08T09:18:08;1.20;;;0.70;;
4601;SDS011;2313;48.552;9.370;2023-01-08T09:20:34;1.57;;;1.27;;
4601;SDS011;2313;48.552;9.370;2023-01-08T09:23:00;1.10;;;1.00;;
4601;SDS011;2313;48.552;9.370;2023-01-08T09:25:27;1.30;;;0.90;;
4601;SDS011;2313;48.552;9.370;2023-01-08T09:28:03;1.40;;;0.93;;
4601;SDS011;2313;48.552;9.370;2023-01-08T09:30:31;1.83;;;0.70;;
4601;SDS011;2313;48.552;9.370;2023-01-08T09:32:57;0.90;;;0.60;;
4601;SDS011;2313;48.552;9.370;2023-01-08T09:35:23;1.03;;;0.87;;
4601;SDS011;2313;48.552;9.370;2023-01-08T09:37:50;1.73;;;0.80;;
4601;SDS011;2313;48.552;9.370;2023-01-08T09:40:16;0.93;;;0.83;;
4601;SDS011;2313;48.552;9.370;2023-01-08T09:42:43;2.40;;;0.80;;
4601;SDS011;2313;48.552;9.370;2023-01-08T09:45:24;1.20;;;0.90;;
4601;SDS011;2313;48.552;9.370;2023-01-08T09:47:58;0.93;;;0.87;;
4601;SDS011;2313;48.552;9.370;2023-01-08T09:50:27;0.90;;;0.60;;
4601;SDS011;2313;48.552;9.370;2023-01-08T09:52:54;1.00;;;0.80;;
4601;SDS011;2313;48.552;9.370;2023-01-08T09:55:20;0.90;;;0.73;;
4601;SDS011;2313;48.552;9.370;2023-01-08T09:57:46;0.97;;;0.60;;
4601;SDS011;2313;48.552;9.370;2023-01-08T10:00:20;1.10;;;0.70;;
4601;SDS011;2313;48.552;9.370;2023-01-08T10:02:50;1.57;;;0.90;;
4601;SDS011;2313;48.552;9.370;2023-01-08T10:05:18;1.57;;;0.77;;
4601;SDS011;2313;48.552;9.370;2023-01-08T10:07:44;1.00;;;0.87;;
4601;SDS011;2313;48.552;9.370;2023-01-08T10:10:22;0.80;;;0.70;;
4601;SDS011;2313;48.552;9.370;2023-01-08T10:12:52;1.30;;;0.90;;
4601;SDS011;2313;48.552;9.370;2023-01-08T10:15:19;1.50;;;0.90;;
4601;SDS011;2313;48.552;9.370;2023-01-08T10:20:31;1.53;;;1.07;;
4601;SDS011;2313;48.552;9.370;2023-01-08T10:23:07;0.90;;;0.70;;
4601;SDS011;2313;48.552;9.370;2023-01-08T10:25:47;1.00;;;0.90;;
4601;SDS011;2313;48.552;9.370;2023-01-08T10:28:24;0.80;;;0.67;;
4601;SDS011;2313;48.552;9.370;2023-01-08T10:30:53;1.33;;;0.90;;
4601;SDS011;2313;48.552;9.370;2023-01-08T10:33:48;0.93;;;0.93;;
4601;SDS011;2313;48.552;9.370;2023-01-08T10:36:14;1.00;;;0.90;;
4601;SDS011;2313;48.552;9.370;2023-01-08T10:38:56;1.67;;;1.00;;
4601;SDS011;2313;48.552;9.370;2023-01-08T10:41:24;4.30;;;0.93;;
4601;SDS011;2313;48.552;9.370;2023-01-08T10:43:53;1.07;;;0.97;;
4601;SDS011;2313;48.552;9.370;2023-01-08T10:46:25;2.33;;;0.90;;
4601;SDS011;2313;48.552;9.370;2023-01-08T10:48:53;0.93;;;0.87;;
4601;SDS011;2313;48.552;9.370;2023-01-08T10:51:25;2.70;;;0.93;;
4601;SDS011;2313;48.552;9.370;2023-01-08T10:53:54;0.90;;;0.67;;
4601;SDS011;2313;48.552;9.370;2023-01-08T10:56:27;0.83;;;0.83;;
4601;SDS011;2313;48.552;9.370;2023-01-08T10:58:54;2.30;;;0.90;;
4601;SDS011;2313;48.552;9.370;2023-01-08T11:01:29;0.90;;;0.70;;
4601;SDS011;2313;48.552;9.370;2023-01-08T11:04:00;1.10;;;0.77;;
4601;SDS011;2313;48.552;9.370;2023-01-08T11:06:29;2.00;;;1.57;;
4601;SDS011;2313;48.552;9.370;2023-01-08T11:09:03;1.07;;;0.97;;
4601;SDS011;2313;48.552;9.370;2023-01-08T11:11:43;2.00;;;1.80;;
4601;SDS011;2313;48.552;9.370;2023-01-08T11:14:14;2.00;;;1.47;;
4601;SDS011;2313;48.552;9.370;2023-01-08T11:16:41;1.97;;;1.70;;
4601;SDS011;2313;48.552;9.370;2023-01-08T11:19:18;0.87;;;0.67;;
4601;SDS011;2313;48.552;9.370;2023-01-08T11:21:55;2.00;;;1.90;;
4601;SDS011;2313;48.552;9.370;2023-01-08T11:24:28;0.80;;;0.73;;
4601;SDS011;2313;48.552;9.370;2023-01-08T11:29:33;5.40;;;4.90;;
4601;SDS011;2313;48.552;9.370;2023-01-08T11:32:28;2.13;;;1.03;;
4601;SDS011;2313;48.552;9.370;2023-01-08T11:37:52;0.70;;;0.50;;
4601;SDS011;2313;48.552;9.370;2023-01-08T11:40:31;1.30;;;1.20;;
4601;SDS011;2313;48.552;9.370;2023-01-08T11:43:30;0.80;;;0.60;;
4601;SDS011;2313;48.552;9.370;2023-01-08T11:51:34;1.23;;;0.90;;
4601;SDS011;2313;48.552;9.370;2023-01-08T11:54:22;1.20;;;0.70;;
4601;SDS011;2313;48.552;9.370;2023-01-08T11:57:16;1.13;;;0.80;;
4601;SDS011;2313;48.552;9.370;2023-01-08T12:15:26;6.30;;;3.73;;
4601;SDS011;2313;48.552;9.370;2023-01-08T12:20:48;1.97;;;1.67;;
4601;SDS011;2313;48.552;9.370;2023-01-08T12:23:27;0.90;;;0.90;;
4601;SDS011;2313;48.552;9.370;2023-01-08T12:26:02;1.80;;;1.27;;
4601;SDS011;2313;48.552;9.370;2023-01-08T12:34:06;1.37;;;1.27;;
4601;SDS011;2313;48.552;9.370;2023-01-08T12:36:40;0.83;;;0.80;;
4601;SDS011;2313;48.552;9.370;2023-01-08T12:39:14;1.17;;;0.70;;
4601;SDS011;2313;48.552;9.370;2023-01-08T12:41:45;1.10;;;0.90;;
4601;SDS011;2313;48.552;9.370;2023-01-08T12:44:12;0.90;;;0.70;;
4601;SDS011;2313;48.552;9.370;2023-01-08T12:46:53;0.80;;;0.60;;
4601;SDS011;2313;48.552;9.370;2023-01-08T12:49:29;1.00;;;0.90;;
4601;SDS011;2313;48.552;9.370;2023-01-08T12:52:14;1.10;;;0.73;;
4601;SDS011;2313;48.552;9.370;2023-01-08T12:54:48;1.20;;;0.93;;
4601;SDS011;2313;48.552;9.370;2023-01-08T12:57:24;1.00;;;0.90;;
4601;SDS011;2313;48.552;9.370;2023-01-08T13:07:44;0.80;;;0.70;;
4601;SDS011;2313;48.552;9.370;2023-01-08T13:10:19;0.90;;;0.60;;
4601;SDS011;2313;48.552;9.370;2023-01-08T13:12:48;1.33;;;0.70;;
4601;SDS011;2313;48.552;9.370;2023-01-08T13:15:18;1.17;;;0.67;;
4601;SDS011;2313;48.552;9.370;2023-01-08T13:17:46;0.80;;;0.70;;
4601;SDS011;2313;48.552;9.370;2023-01-08T13:20:18;0.70;;;0.50;;
4601;SDS011;2313;48.552;9.370;2023-01-08T13:22:54;2.23;;;0.60;;
4601;SDS011;2313;48.552;9.370;2023-01-08T13:27:48;0.90;;;0.80;;
4601;SDS011;2313;48.552;9.370;2023-01-08T13:38:41;1.00;;;0.70;;
4601;SDS011;2313;48.552;9.370;2023-01-08T13:50:16;1.60;;;0.60;;
4601;SDS011;2313;48.552;9.370;2023-01-08T13:52:48;1.20;;;0.70;;
4601;SDS011;2313;48.552;9.370;2023-01-08T13:58:08;3.93;;;1.00;;
4601;SDS011;2313;48.552;9.370;2023-01-08T14:00:48;1.00;;;0.70;;
4601;SDS011;2313;48.552;9.370;2023-01-08T14:06:18;2.63;;;1.20;;
4601;SDS011;2313;48.552;9.370;2023-01-08T14:08:52;8.80;;;5.23;;
4601;SDS011;2313;48.552;9.370;2023-01-08T14:11:22;1.50;;;1.40;;
4601;SDS011;2313;48.552;9.370;2023-01-08T14:13:52;1.00;;;0.90;;
4601;SDS011;2313;48.552;9.370;2023-01-08T14:16:18;1.20;;;0.83;;
4601;SDS011;2313;48.552;9.370;2023-01-08T14:18:44;2.40;;;1.77;;
4601;SDS011;2313;48.552;9.370;2023-01-08T14:21:11;0.90;;;0.80;;
4601;SDS011;2313;48.552;9.370;2023-01-08T14:23:43;1.93;;;0.90;;
4601;SDS011;2313;48.552;9.370;2023-01-08T14:29:00;1.40;;;0.93;;
4601;SDS011;2313;48.552;9.370;2023-01-08T14:31:28;1.80;;;0.93;;
4601;SDS011;2313;48.552;9.370;2023-01-08T14:33:55;2.40;;;0.83;;
4601;SDS011;2313;48.552;9.370;2023-01-08T14:36:23;1.40;;;0.80;;
4601;SDS011;2313;48.552;9.370;2023-01-08T14:38:49;1.50;;;1.13;;
4601;SDS011;2313;48.552;9.370;2023-01-08T14:41:37;1.90;;;1.17;;
4601;SDS011;2313;48.552;9.370;2023-01-08T14:44:21;0.80;;;0.67;;
4601;SDS011;2313;48.552;9.370;2023-01-08T14:46:49;1.47;;;1.30;;
4601;SDS011;2313;48.552;9.370;2023-01-08T14:49:21;1.33;;;0.90;;
4601;SDS011;2313;48.552;9.370;2023-01-08T14:51:59;1.40;;;1.00;;
4601;SDS011;2313;48.552;9.370;2023-01-08T14:54:30;1.03;;;0.93;;
4601;SDS011;2313;48.552;9.370;2023-01-08T14:56:58;1.70;;;1.53;;
4601;SDS011;2313;48.552;9.370;2023-01-08T14:59:27;1.57;;;1.37;;
4601;SDS011;2313;48.552;9.370;2023-01-08T15:01:57;1.47;;;0.90;;
4601;SDS011;2313;48.552;9.370;2023-01-08T15:04:25;3.27;;;1.67;;
4601;SDS011;2313;48.552;9.370;2023-01-08T15:07:02;1.60;;;1.17;;
4601;SDS011;2313;48.552;9.370;2023-01-08T15:09:31;37.17;;;10.03;;
4601;SDS011;2313;48.552;9.370;2023-01-08T15:11:58;64.63;;;16.47;;
4601;SDS011;2313;48.552;9.370;2023-01-08T15:14:26;87.63;;;23.80;;
4601;SDS011;2313;48.552;9.370;2023-01-08T15:16:55;35.23;;;11.50;;
4601;SDS011;2313;48.552;9.370;2023-01-08T15:19:27;2.57;;;1.70;;
4601;SDS011;2313;48.552;9.370;2023-01-08T15:21:55;24.87;;;9.27;;
4601;SDS011;2313;48.552;9.370;2023-01-08T15:26:53;1.10;;;1.00;;
4601;SDS011;2313;48.552;9.370;2023-01-08T15:29:27;1.43;;;1.23;;
4601;SDS011;2313;48.552;9.370;2023-01-08T15:32:07;1.50;;;1.20;;
4601;SDS011;2313;48.552;9.370;2023-01-08T15:34:36;3.40;;;1.83;;
4601;SDS011;2313;48.552;9.370;2023-01-08T15:37:01;1.30;;;1.00;;
4601;SDS011;2313;48.552;9.370;2023-01-08T15:39:27;3.10;;;2.33;;
4601;SDS011;2313;48.552;9.370;2023-01-08T15:41:53;1.37;;;1.27;;
4601;SDS011;2313;48.552;9.370;2023-01-08T15:44:37;3.70;;;1.63;;
4601;SDS011;2313;48.552;9.370;2023-01-08T15:47:02;1.73;;;1.33;;
4601;SDS011;2313;48.552;9.370;2023-01-08T15:49:28;6.03;;;2.53;;
4601;SDS011;2313;48.552;9.370;2023-01-08T15:51:53;6.50;;;2.80;;
4601;SDS011;2313;48.552;9.370;2023-01-08T15:54:20;5.20;;;2.30;;
4601;SDS011;2313;48.552;9.370;2023-01-08T15:56:49;5.13;;;2.60;;
4601;SDS011;2313;48.552;9.370;2023-01-08T15:59:15;2.83;;;1.40;;
4601;SDS011;2313;48.552;9.370;2023-01-08T16:01:40;18.53;;;8.13;;
4601;SDS011;2313;48.552;9.370;2023-01-08T16:04:06;5.77;;;3.10;;
4601;SDS011;2313;48.552;9.370;2023-01-08T16:06:32;3.40;;;1.10;;
4601;SDS011;2313;48.552;9.370;2023-01-08T16:09:00;4.10;;;1.90;;
4601;SDS011;2313;48.552;9.370;2023-01-08T16:11:25;1.70;;;1.53;;
4601;SDS011;2313;48.552;9.370;2023-01-08T16:13:51;1.80;;;1.27;;
4601;SDS011;2313;48.552;9.370;2023-01-08T16:16:17;3.57;;;1.70;;
4601;SDS011;2313;48.552;9.370;2023-01-08T16:18:44;3.57;;;1.63;;
4601;SDS011;2313;48.552;9.370;2023-01-08T16:21:10;2.00;;;1.80;;
4601;SDS011;2313;48.552;9.370;2023-01-08T16:23:36;2.03;;;1.50;;
4601;SDS011;2313;48.552;9.370;2023-01-08T16:26:05;1.63;;;1.40;;
4601;SDS011;2313;48.552;9.370;2023-01-08T16:28:30;1.50;;;1.40;;
4601;SDS011;2313;48.552;9.370;2023-01-08T16:30:56;1.77;;;1.50;;
4601;SDS011;2313;48.552;9.370;2023-01-08T16:33:21;2.20;;;1.83;;
4601;SDS011;2313;48.552;9.370;2023-01-08T16:35:57;2.90;;;1.80;;
4601;SDS011;2313;48.552;9.370;2023-01-08T16:38:24;1.50;;;1.10;;
4601;SDS011;2313;48.552;9.370;2023-01-08T16:40:50;6.40;;;4.00;;
4601;SDS011;2313;48.552;9.370;2023-01-08T16:43:17;1.40;;;1.30;;
4601;SDS011;2313;48.552;9.370;2023-01-08T16:45:46;2.90;;;2.07;;
4601;SDS011;2313;48.552;9.370;2023-01-08T16:48:12;1.30;;;1.20;;
4601;SDS011;2313;48.552;9.370;2023-01-08T16:50:39;3.17;;;2.07;;
4601;SDS011;2313;48.552;9.370;2023-01-08T16:53:05;3.40;;;2.93;;
4601;SDS011;2313;48.552;9.370;2023-01-08T16:55:31;2.97;;;2.57;;
4601;SDS011;2313;48.552;9.370;2023-01-08T16:57:57;13.00;;;5.43;;
4601;SDS011;2313;48.552;9.370;2023-01-08T17:00:22;54.10;;;15.70;;
4601;SDS011;2313;48.552;9.370;2023-01-08T17:02:48;2.57;;;1.90;;
4601;SDS011;2313;48.552;9.370;2023-01-08T17:05:13;1.40;;;1.30;;
4601;SDS011;2313;48.552;9.370;2023-01-08T17:07:40;2.03;;;1.87;;